createdAt,value
2023-09-06T00:01:42.766Z,102200.06
2023-09-06T00:06:44.290Z,102199.63
2023-09-06T00:11:45.849Z,102200.19
2023-09-06T00:16:47.775Z,102208.06
2023-09-06T00:21:49.361Z,102204.66
2023-09-06T00:26:50.912Z,102214.63
2023-09-06T00:31:52.435Z,102210.28
2023-09-06T00:36:53.981Z,102209.16
2023-09-06T00:41:55.445Z,102215.78
2023-09-06T00:46:57.060Z,102222.72
2023-09-06T00:51:58.617Z,102219.84
2023-09-06T00:57:00.214Z,102225.53
2023-09-06T01:02:01.796Z,102225.63
2023-09-06T01:07:05.110Z,102220.00
2023-09-06T01:12:06.939Z,102211.69
2023-09-06T01:17:10.409Z,102210.13
2023-09-06T01:22:23.391Z,102212.72
2023-09-06T01:27:25.281Z,102214.03
2023-09-06T01:32:26.790Z,102212.06
2023-09-06T01:37:28.283Z,102204.81
2023-09-06T01:42:29.718Z,102202.06
2023-09-06T01:47:31.215Z,102198.91
2023-09-06T01:52:32.753Z,102197.84
2023-09-06T01:57:34.229Z,102205.78
2023-09-06T02:02:35.830Z,102206.84
2023-09-06T02:07:37.356Z,102209.53
2023-09-06T02:12:39.327Z,102202.63
2023-09-06T02:17:42.225Z,102206.44
2023-09-06T02:22:45.404Z,102207.84
2023-09-06T02:27:46.963Z,102203.66
2023-09-06T02:32:52.073Z,102200.06
2023-09-06T02:37:53.572Z,102202.31
2023-09-06T02:42:55.031Z,102207.84
2023-09-06T02:47:56.551Z,102202.81
2023-09-06T02:52:58.034Z,102209.03
2023-09-06T02:57:59.857Z,102205.19
2023-09-06T03:03:01.503Z,102207.44
2023-09-06T03:08:03.268Z,102203.41
2023-09-06T03:13:06.046Z,102203.50
2023-09-06T03:18:07.732Z,102207.09
2023-09-06T03:23:11.359Z,102216.44
2023-09-06T03:28:13.490Z,102235.53
2023-09-06T03:33:15.755Z,102232.81
2023-09-06T03:38:17.882Z,102241.59
2023-09-06T03:43:19.514Z,102232.69
2023-09-06T03:48:22.245Z,102234.44
2023-09-06T03:53:24.675Z,102231.56
2023-09-06T03:58:28.074Z,102239.19
2023-09-06T04:03:31.309Z,102240.41
2023-09-06T04:08:35.205Z,102227.47
2023-09-06T04:13:37.692Z,102227.81
2023-09-06T04:18:39.566Z,102229.56
2023-09-06T04:23:41.178Z,102233.78
2023-09-06T04:28:44.774Z,102235.94
2023-09-06T04:33:49.819Z,102237.88
2023-09-06T04:38:55.576Z,102242.53
2023-09-06T04:43:57.904Z,102246.13
2023-09-06T04:48:59.528Z,102247.06
2023-09-06T04:54:01.323Z,102249.47
2023-09-06T04:59:07.451Z,102256.56
2023-09-06T05:04:09.385Z,102259.94
2023-09-06T05:09:11.422Z,102262.16
2023-09-06T05:14:13.014Z,102262.75
2023-09-06T05:19:15.545Z,102264.94
2023-09-06T05:24:17.432Z,102261.34
2023-09-06T05:29:19.529Z,102263.75
2023-09-06T05:34:21.282Z,102270.47
2023-09-06T05:39:22.923Z,102275.34
2023-09-06T05:44:24.502Z,102274.25
2023-09-06T05:49:26.178Z,102275.78
2023-09-06T05:54:27.750Z,102279.53
2023-09-06T05:59:29.345Z,102282.97
2023-09-06T06:04:31.037Z,102270.50
2023-09-06T06:09:32.604Z,102274.19
2023-09-06T06:14:34.083Z,102271.78
2023-09-06T06:19:38.395Z,102278.13
2023-09-06T06:24:43.117Z,102281.16
2023-09-06T06:29:44.622Z,102285.72
2023-09-06T06:34:46.100Z,102288.09
2023-09-06T06:39:47.720Z,102283.47
2023-09-06T06:44:49.174Z,102287.09
2023-09-06T06:49:51.753Z,102290.59
2023-09-06T06:54:53.237Z,102296.47
2023-09-06T06:59:54.691Z,102302.13
2023-09-06T07:04:58.022Z,102295.66
2023-09-06T07:09:59.653Z,102304.81
2023-09-06T07:15:01.119Z,102304.38
2023-09-06T07:20:03.001Z,102310.47
2023-09-06T07:25:06.416Z,102308.91
2023-09-06T07:30:08.603Z,102314.81
2023-09-06T07:35:10.250Z,102310.44
2023-09-06T07:40:12.058Z,102319.72
2023-09-06T07:45:13.534Z,102321.03
2023-09-06T07:50:15.166Z,102322.22
2023-09-06T07:55:16.780Z,102327.09
2023-09-06T08:00:18.524Z,102327.25
2023-09-06T08:05:20.043Z,102323.38
2023-09-06T08:10:21.547Z,102327.66
2023-09-06T08:15:23.329Z,102329.28
2023-09-06T08:20:24.975Z,102325.31
2023-09-06T08:25:26.782Z,102329.75
2023-09-06T08:30:28.464Z,102330.72
2023-09-06T08:35:30.088Z,102338.84
2023-09-06T08:40:31.626Z,102335.44
2023-09-06T08:45:34.567Z,102345.84
2023-09-06T08:50:37.200Z,102340.22
2023-09-06T08:55:38.798Z,102345.88
2023-09-06T09:00:40.835Z,102349.94
2023-09-06T09:05:42.463Z,102349.75
2023-09-06T09:10:43.964Z,102355.56
2023-09-06T09:15:46.372Z,102356.47
2023-09-06T09:20:47.826Z,102358.13
2023-09-06T09:25:50.555Z,102352.97
2023-09-06T09:30:52.587Z,102353.66
2023-09-06T09:35:54.177Z,102354.94
2023-09-06T09:41:09.273Z,102354.09
2023-09-06T09:46:11.072Z,102345.41
2023-09-06T09:51:15.077Z,102335.59
2023-09-06T09:56:16.741Z,102341.16
2023-09-06T10:01:19.986Z,102340.31
2023-09-06T10:06:22.371Z,102332.00
2023-09-06T10:11:26.008Z,102334.47
2023-09-06T10:16:27.668Z,102331.81
2023-09-06T10:21:32.487Z,102331.00
2023-09-06T10:26:35.715Z,102326.03
2023-09-06T10:31:47.669Z,102330.81
2023-09-06T10:36:56.820Z,102319.44
2023-09-06T10:42:10.652Z,102315.44
2023-09-06T10:47:29.138Z,102323.56
2023-09-06T10:52:43.216Z,102311.09
2023-09-06T10:58:00.104Z,102315.44
2023-09-06T11:03:07.698Z,102310.38
2023-09-06T11:08:10.842Z,102311.84
2023-09-06T11:13:13.968Z,102309.81
2023-09-06T11:18:15.527Z,102301.34
2023-09-06T11:23:17.420Z,102306.06
2023-09-06T11:28:20.210Z,102311.50
2023-09-06T11:33:28.729Z,102308.59
2023-09-06T11:38:33.392Z,102305.28
2023-09-06T11:43:35.366Z,102301.94
2023-09-06T11:48:37.062Z,102305.25
2023-09-06T11:53:42.328Z,102306.22
2023-09-06T11:58:44.711Z,102305.25
2023-09-06T12:03:47.175Z,102308.31
2023-09-06T12:08:48.854Z,102304.63
2023-09-06T12:13:50.417Z,102304.75
2023-09-06T12:18:52.419Z,102298.34
2023-09-06T12:23:53.956Z,102294.41
2023-09-06T12:28:55.437Z,102299.19
2023-09-06T12:33:56.931Z,102291.25
2023-09-06T12:38:58.568Z,102283.47
2023-09-06T12:44:00.090Z,102279.91
2023-09-06T12:49:01.649Z,102278.59
2023-09-06T12:54:03.225Z,102281.38
2023-09-06T12:59:04.804Z,102276.31
2023-09-06T13:04:06.746Z,102271.25
2023-09-06T13:09:08.301Z,102271.66
2023-09-06T13:14:09.856Z,102275.94
2023-09-06T13:19:13.415Z,102259.16
2023-09-06T13:24:16.360Z,102266.16
2023-09-06T13:29:17.843Z,102251.59
2023-09-06T13:34:19.290Z,102255.81
2023-09-06T13:39:20.768Z,102259.66
2023-09-06T13:44:22.452Z,102246.03
2023-09-06T13:49:23.900Z,102249.75
2023-09-06T13:54:25.419Z,102250.91
2023-09-06T13:59:26.968Z,102253.09
2023-09-06T14:04:28.520Z,102243.16
2023-09-06T14:09:30.070Z,102243.78
2023-09-06T14:14:31.572Z,102247.94
2023-09-06T14:19:33.059Z,102237.13
2023-09-06T14:24:34.470Z,102238.31
2023-09-06T14:29:35.943Z,102232.53
2023-09-06T14:34:37.404Z,102226.44
2023-09-06T14:39:38.920Z,102221.38
2023-09-06T14:44:40.424Z,102226.44
2023-09-06T14:49:41.979Z,102225.56
2023-09-06T14:54:44.592Z,102229.09
2023-09-06T14:59:46.099Z,102223.44
2023-09-06T15:04:47.589Z,102222.13
2023-09-06T15:09:49.152Z,102227.28
2023-09-06T15:14:51.042Z,102227.44
2023-09-06T15:19:52.525Z,102221.59
2023-09-06T15:24:53.959Z,102228.25
2023-09-06T15:29:55.452Z,102218.47
2023-09-06T15:34:57.076Z,102221.31
2023-09-06T15:39:58.595Z,102219.50
2023-09-06T15:45:00.164Z,102226.16
2023-09-06T15:50:01.665Z,102224.81
2023-09-06T15:55:03.262Z,102219.19
2023-09-06T16:00:16.107Z,102225.66
2023-09-06T16:05:22.014Z,102223.88
2023-09-06T16:10:27.018Z,102224.84
2023-09-06T16:15:28.524Z,102228.22
2023-09-06T16:20:29.952Z,102237.16
2023-09-06T16:25:35.001Z,102241.50
2023-09-06T16:30:39.981Z,102233.00
2023-09-06T16:35:41.567Z,102233.84
2023-09-06T16:40:43.044Z,102232.34
2023-09-06T16:45:44.625Z,102240.63
2023-09-06T16:50:46.157Z,102239.25
2023-09-06T16:55:47.648Z,102239.19
2023-09-06T17:00:49.176Z,102252.72
2023-09-06T17:05:50.676Z,102248.84
2023-09-06T17:10:52.224Z,102242.91
2023-09-06T17:15:53.835Z,102250.44
2023-09-06T17:20:55.468Z,102254.06
2023-09-06T17:25:57.054Z,102256.97
2023-09-06T17:30:58.560Z,102254.03
2023-09-06T17:36:00.006Z,102257.56
2023-09-06T17:41:01.548Z,102252.66
2023-09-06T17:46:03.586Z,102250.75
2023-09-06T17:51:05.161Z,102265.06
2023-09-06T17:56:07.838Z,102264.06
2023-09-06T18:01:10.973Z,102260.66
2023-09-06T18:06:13.089Z,102267.84
2023-09-06T18:11:14.665Z,102271.00
2023-09-06T18:16:17.627Z,102269.66
2023-09-06T18:21:19.151Z,102275.16
2023-09-06T18:26:20.711Z,102274.50
2023-09-06T18:31:22.441Z,102284.38
2023-09-06T18:36:24.088Z,102288.72
2023-09-06T18:41:25.547Z,102289.97
2023-09-06T18:46:27.115Z,102290.28
2023-09-06T18:51:28.632Z,102296.81
2023-09-06T18:56:30.101Z,102297.50
2023-09-06T19:01:31.589Z,102306.91
2023-09-06T19:06:33.050Z,102298.38
2023-09-06T19:11:35.598Z,102306.41
2023-09-06T19:16:37.109Z,102309.13
2023-09-06T19:21:38.608Z,102309.88
2023-09-06T19:26:40.154Z,102306.50
2023-09-06T19:31:41.661Z,102318.47
2023-09-06T19:36:43.123Z,102318.66
2023-09-06T19:41:44.595Z,102326.19
2023-09-06T19:46:46.057Z,102328.97
2023-09-06T19:51:47.541Z,102323.50
2023-09-06T19:56:49.115Z,102333.19
2023-09-06T20:01:50.620Z,102328.03
2023-09-06T20:06:52.165Z,102324.56
2023-09-06T20:11:53.669Z,102323.16
2023-09-06T20:16:56.347Z,102319.81
2023-09-06T20:21:57.894Z,102323.47
2023-09-06T20:26:59.457Z,102333.91
2023-09-06T20:32:01.174Z,102333.22
2023-09-06T20:37:02.913Z,102338.47
2023-09-06T20:42:04.821Z,102334.75
2023-09-06T20:47:06.341Z,102344.13
2023-09-06T20:52:07.901Z,102336.97
2023-09-06T20:57:09.409Z,102339.63
2023-09-06T21:02:10.916Z,102333.25
2023-09-06T21:07:12.525Z,102340.59
2023-09-06T21:12:14.059Z,102339.00
2023-09-06T21:17:15.566Z,102344.75
2023-09-06T21:22:17.042Z,102347.13
2023-09-06T21:27:18.509Z,102347.13
2023-09-06T21:32:19.982Z,102346.63
2023-09-06T21:37:21.472Z,102346.75
2023-09-06T21:42:23.025Z,102350.28
2023-09-06T21:47:24.733Z,102352.13
2023-09-06T21:52:26.304Z,102357.91
2023-09-06T21:57:27.777Z,102358.09
2023-09-06T22:02:29.405Z,102363.06
2023-09-06T22:07:50.402Z,102376.91
2023-09-06T22:13:10.301Z,102377.16
2023-09-06T22:18:11.842Z,102375.38
2023-09-06T22:23:13.581Z,102371.97
2023-09-06T22:28:15.115Z,102368.91
2023-09-06T22:33:16.686Z,102372.91
2023-09-06T22:38:18.588Z,102364.72
2023-09-06T22:43:20.151Z,102374.91
2023-09-06T22:48:21.639Z,102368.59
2023-09-06T22:53:23.173Z,102371.66
2023-09-06T22:58:24.664Z,102375.00
2023-09-06T23:03:26.244Z,102377.31
2023-09-06T23:08:28.604Z,102377.72
2023-09-06T23:13:30.342Z,102370.47
2023-09-06T23:18:32.138Z,102374.38
2023-09-06T23:23:34.049Z,102379.38
2023-09-06T23:28:36.006Z,102382.84
2023-09-06T23:33:38.126Z,102386.28
2023-09-06T23:38:39.572Z,102388.41
2023-09-06T23:43:41.068Z,102394.91
2023-09-06T23:48:42.515Z,102393.53
2023-09-06T23:53:43.994Z,102392.41
2023-09-06T23:58:45.522Z,102395.78
